North Star State — WDD7423 — position and weather

sailwx.info

Track history (hours):
 
Tides and Currents Weather Stations Pressure Air Temp Water Temp Dewpoint Dewpoint Depression Visibility Wind Speed Wind Dir Waves Ship Positions

North Star State

Owner: Great Lakes Dredge & Dock Company, LLC., Oak Brook, IL. More information available from US FCC via Universal Licensing System and Coast Guard Vessel Documentation Center.

Last reported at 2018-Feb-24 04:00 UTC. Time now 2018-Feb-24 04:04 UTC.
Position N 36°50' W 076°17'.

MMSI: 367186210.

Date/timePositionNaut miles runAvg speedWind from/ knotsBaromVisibWave heightAir tempDewpointWater temp
2018-Feb-24 04:00N 36°50' W 076°17'0 0.0
2018-Feb-24 03:30N 36°50' W 076°17'0 0.0
2018-Feb-24 03:00N 36°50' W 076°17'0 0.0
2018-Feb-24 02:30N 36°50' W 076°17'0 0.0
2018-Feb-24 02:00N 36°50' W 076°17'0 0.0
2018-Feb-24 01:30N 36°50' W 076°17'0 0.0
2018-Feb-24 01:00N 36°50' W 076°17'0 0.0
2018-Feb-24 00:30N 36°50' W 076°17'0 0.0
2018-Feb-24 00:00N 36°50' W 076°17'0 0.0
2018-Feb-23 23:30N 36°50' W 076°17'0 0.0
2018-Feb-23 23:00N 36°50' W 076°17'0 0.0
2018-Feb-23 22:30N 36°50' W 076°17'0 0.0
2018-Feb-23 22:00N 36°50' W 076°17'0 0.0
2018-Feb-23 21:30N 36°50' W 076°17'0 0.0
2018-Feb-23 21:00N 36°50' W 076°17'0 0.0
2018-Feb-23 20:30N 36°50' W 076°17'0 0.0
2018-Feb-23 20:00N 36°50' W 076°17'0 0.0
2018-Feb-23 19:30N 36°50' W 076°17'0 0.0
2018-Feb-23 19:00N 36°50' W 076°17'0 0.0
2018-Feb-23 18:30N 36°50' W 076°17'0 0.0
2018-Feb-23 18:00N 36°50' W 076°17'0 0.0
2018-Feb-23 17:30N 36°50' W 076°17'0 0.0
2018-Feb-23 16:59N 36°50' W 076°17'0 0.3
2018-Feb-23 16:30N 36°50' W 076°18'1 2.5
2018-Feb-23 16:00N 36°50' W 076°16'0 0.3
2018-Feb-23 15:30N 36°50' W 076°16'0 0.3
2018-Feb-23 14:57N 36°50' W 076°16'0 0.1
2018-Feb-23 14:30N 36°50' W 076°16'1 2.7
2018-Feb-23 14:00N 36°50' W 076°18'3 5.5
2018-Feb-23 13:30N 36°47' W 076°18'1 1.3
2018-Feb-23 13:00N 36°47' W 076°18'0 0.0
2018-Feb-23 12:30N 36°47' W 076°18'0 0.1
2018-Feb-23 12:00N 36°47' W 076°18'1 2.7
2018-Feb-23 11:30N 36°48' W 076°17'2 4.5
2018-Feb-23 11:01N 36°50' W 076°18'0 0.3
2018-Feb-23 10:28N 36°50' W 076°17'0 0.0
2018-Feb-23 09:59N 36°50' W 076°17'0 0.0
2018-Feb-23 09:29N 36°50' W 076°17'0 0.0
2018-Feb-23 08:54N 36°50' W 076°17'0 0.0
2018-Feb-23 08:30N 36°50' W 076°17'0 0.0
2018-Feb-23 07:37N 36°50' W 076°17'0 0.0
2018-Feb-23 05:58N 36°50' W 076°17'0 0.0
2018-Feb-23 05:23N 36°50' W 076°17'0 0.0
2018-Feb-23 04:57N 36°50' W 076°17'0 0.0
2018-Feb-23 04:26N 36°50' W 076°17'0 0.0
2018-Feb-23 04:00N 36°50' W 076°17'0 0.0
2018-Feb-23 03:30N 36°50' W 076°17'0 0.0
2018-Feb-23 03:00N 36°50' W 076°17'0 0.0
2018-Feb-23 02:31N 36°50' W 076°17'0 0.0
2018-Feb-23 02:01N 36°50' W 076°17'0 0.0
2018-Feb-23 01:30N 36°50' W 076°17'0 0.0
2018-Feb-23 01:01N 36°50' W 076°17'0 0.0
2018-Feb-23 00:31N 36°50' W 076°17'0 0.0
2018-Feb-23 00:00N 36°50' W 076°17'0 0.0
2018-Feb-22 23:31N 36°50' W 076°17'0 0.0
2018-Feb-22 23:00N 36°50' W 076°17'0 0.0
2018-Feb-22 22:31N 36°50' W 076°17'0 0.0
2018-Feb-22 22:00N 36°50' W 076°17'0 0.0
2018-Feb-22 21:31N 36°50' W 076°17'0 0.0
2018-Feb-22 21:01N 36°50' W 076°17'0 0.0
2018-Feb-22 20:31N 36°50' W 076°17'0 0.0
2018-Feb-22 20:01N 36°50' W 076°17'0 0.0
2018-Feb-22 19:31N 36°50' W 076°17'0 0.0
2018-Feb-22 19:01N 36°50' W 076°17'0 0.0
2018-Feb-22 18:30N 36°50' W 076°17'2 3.7
2018-Feb-22 18:00N 36°48' W 076°17'0 0.9
2018-Feb-22 17:26N 36°48' W 076°17'0 1.0
2018-Feb-22 17:00N 36°48' W 076°17'3 5.2
2018-Feb-22 16:30N 36°51' W 076°18'2 4.4
2018-Feb-22 16:00N 36°51' W 076°21'1 2.2
2018-Feb-22 15:30N 36°52' W 076°20'1 1.9
2018-Feb-22 14:58N 36°53' W 076°21'0 0.1
2018-Feb-22 14:28N 36°53' W 076°21'0 0.5
2018-Feb-22 13:58N 36°53' W 076°21'3 6.4
2018-Feb-22 13:30N 36°51' W 076°18'1 1.5
2018-Feb-22 13:00N 36°50' W 076°17'0 0.0
2018-Feb-22 12:30N 36°50' W 076°17'0 0.0
2018-Feb-22 12:00N 36°50' W 076°17'0 0.0
2018-Feb-22 11:30N 36°50' W 076°17'0 0.0
2018-Feb-22 11:00N 36°50' W 076°17'0 0.0
2018-Feb-22 10:30N 36°50' W 076°17'0 0.0
2018-Feb-22 10:00N 36°50' W 076°17'0 0.0
2018-Feb-22 09:30N 36°50' W 076°17'0 0.0
2018-Feb-22 09:00N 36°50' W 076°17'0 0.0
2018-Feb-22 08:30N 36°50' W 076°17'0 0.0
2018-Feb-22 08:00N 36°50' W 076°17'0 0.0
2018-Feb-22 07:30N 36°50' W 076°17'0 0.0
2018-Feb-22 07:00N 36°50' W 076°17'0 0.0
2018-Feb-22 06:28N 36°50' W 076°17'0 0.0
2018-Feb-22 05:51N 36°50' W 076°17'0 0.0
2018-Feb-22 05:29N 36°50' W 076°17'0 0.0
2018-Feb-22 04:59N 36°50' W 076°17'0 0.0
2018-Feb-22 04:30N 36°50' W 076°17'0 0.0
2018-Feb-22 04:00N 36°50' W 076°17'0 0.0
2018-Feb-22 03:30N 36°50' W 076°17'0 0.0
2018-Feb-22 03:00N 36°50' W 076°17'0 0.0
2018-Feb-22 02:30N 36°50' W 076°17'0 0.0
2018-Feb-22 02:00N 36°50' W 076°17'0 0.0
2018-Feb-22 01:30N 36°50' W 076°17'0 0.0
2018-Feb-22 01:00N 36°50' W 076°17'0 0.0
2018-Feb-22 00:30N 36°50' W 076°17'0 0.0
2018-Feb-22 00:00N 36°50' W 076°17'0 0.0
2018-Feb-21 23:30N 36°50' W 076°17'0 0.0
2018-Feb-21 23:00N 36°50' W 076°17'0 0.0
2018-Feb-21 22:30N 36°50' W 076°17'0 0.0
2018-Feb-21 22:00N 36°50' W 076°17'0 0.5
2018-Feb-21 21:30N 36°50' W 076°18'1 1.1
2018-Feb-21 21:00N 36°50' W 076°17'0 0.4
2018-Feb-21 20:30N 36°50' W 076°18'0 0.1
2018-Feb-21 20:00N 36°50' W 076°18'0 0.1
2018-Feb-21 19:30N 36°50' W 076°18'0 0.4
2018-Feb-21 19:00N 36°50' W 076°18'0 0.4
2018-Feb-21 18:30N 36°50' W 076°18'0 0.5
2018-Feb-21 18:00N 36°50' W 076°17'0 0.0
2018-Feb-21 14:52N 36°50' W 076°17'0 0.9
2018-Feb-21 14:30N 36°51' W 076°17'0 0.6
2018-Feb-21 14:00N 36°50' W 076°17'0 0.0
2018-Feb-21 13:30N 36°50' W 076°17'0 0.0
2018-Feb-21 12:59N 36°50' W 076°17'0 0.0
2018-Feb-21 12:29N 36°50' W 076°17'0 0.0
2018-Feb-21 12:00N 36°50' W 076°17'0 0.0
2018-Feb-21 11:30N 36°50' W 076°17'0 0.0
2018-Feb-21 11:00N 36°50' W 076°17'0 0.0
2018-Feb-21 10:30N 36°50' W 076°17'0 0.0
2018-Feb-21 10:00N 36°50' W 076°17'0 0.0
2018-Feb-21 09:30N 36°50' W 076°17'0 0.0
2018-Feb-21 09:00N 36°50' W 076°17'0 0.0
2018-Feb-21 08:30N 36°50' W 076°17'0 0.0
2018-Feb-21 08:00N 36°50' W 076°17'0 0.0
2018-Feb-21 07:30N 36°50' W 076°17'0 0.0
2018-Feb-21 07:00N 36°50' W 076°17'0 0.0
2018-Feb-21 06:30N 36°50' W 076°17'0 0.0
2018-Feb-21 06:00N 36°50' W 076°17'0 0.0
2018-Feb-21 05:30N 36°50' W 076°17'0 0.0
2018-Feb-21 05:00N 36°50' W 076°17'0 0.0
2018-Feb-21 04:30N 36°50' W 076°17'0 0.0
2018-Feb-21 04:00N 36°50' W 076°17'0 0.0
2018-Feb-21 03:30N 36°50' W 076°17'0 0.0
2018-Feb-21 03:00N 36°50' W 076°17'0 0.0
2018-Feb-21 02:29N 36°50' W 076°17'0 0.0
2018-Feb-21 02:00N 36°50' W 076°17'0 0.0
2018-Feb-21 01:02N 36°50' W 076°17'0 0.0
2018-Feb-21 00:59N 36°50' W 076°17'0 0.0
2018-Feb-21 00:30N 36°50' W 076°17'0 0.0
2018-Feb-21 00:00N 36°50' W 076°17'0 0.0
2018-Feb-20 23:27N 36°50' W 076°17'0 0.0
2018-Feb-20 22:59N 36°50' W 076°17'0 0.0
2018-Feb-20 22:30N 36°50' W 076°17'0 0.0
2018-Feb-20 22:00N 36°50' W 076°17'0 0.0
2018-Feb-20 21:29N 36°50' W 076°17'0 0.0
2018-Feb-20 21:00N 36°50' W 076°17'0 0.0
2018-Feb-20 20:30N 36°50' W 076°17'0 0.0
2018-Feb-20 20:00N 36°50' W 076°17'0 0.8
2018-Feb-20 19:30N 36°50' W 076°18'0 0.0
2018-Feb-20 18:32N 36°50' W 076°18'0 0.0
2018-Feb-20 18:31N 36°50' W 076°18'0 0.0
2018-Feb-19 21:10N 36°50' W 076°17'0 0.0
2018-Feb-19 21:00N 36°50' W 076°17'3 5.1
2018-Feb-19 20:29N 36°52' W 076°20'4 6.8
2018-Feb-19 19:58N 36°56' W 076°20'3 5.8
2018-Feb-19 19:23N 36°59' W 076°19'3 6.1
2018-Feb-19 18:57N 37°00' W 076°16'3 6.6
2018-Feb-19 18:29N 37°03' W 076°14'4 6.9
2018-Feb-19 17:58N 37°06' W 076°13'4 6.9
2018-Feb-19 17:27N 37°10' W 076°12'97 7.5
2018-Feb-19 04:32N 38°46' W 076°28'1 8.2
2018-Feb-19 04:28N 38°46' W 076°28'4 8.1
2018-Feb-19 04:00N 38°50' W 076°26'4 8.1
2018-Feb-19 03:30N 38°54' W 076°25'4 8.1
2018-Feb-19 03:00N 38°58' W 076°24'4 7.9
2018-Feb-19 02:30N 39°01' W 076°22'23 7.4
2018-Feb-18 23:20N 39°22' W 076°08'3 8.0
2018-Feb-18 22:59N 39°23' W 076°05'4 8.1
2018-Feb-18 22:30N 39°26' W 076°01'4 7.9
2018-Feb-18 22:00N 39°28' W 075°58'4 8.0
2018-Feb-18 21:30N 39°31' W 075°53'4 7.7
2018-Feb-18 21:00N 39°32' W 075°49'4 8.0
2018-Feb-18 20:30N 39°33' W 075°43'4 8.0
2018-Feb-18 20:00N 39°33' W 075°38'4 7.8
2018-Feb-18 19:30N 39°34' W 075°33'2 3.3
2018-Feb-18 19:00N 39°34' W 075°35'0 0.0
2018-Feb-18 18:30N 39°34' W 075°35'0 0.0
2018-Feb-18 18:00N 39°34' W 075°35'  
2018-Feb-15 17:52N 39°34' W 075°35'0 0.0
2018-Feb-15 17:30N 39°34' W 075°35'2 3.9
2018-Feb-15 17:00N 39°36' W 075°36'3 6.2
2018-Feb-15 16:30N 39°39' W 075°34'3 6.1
2018-Feb-15 16:00N 39°41' W 075°31'3 5.4
2018-Feb-15 15:30N 39°44' W 075°29'0 0.8
2018-Feb-15 15:00N 39°44' W 075°29'0 0.1
2018-Feb-15 14:29N 39°44' W 075°29'1 1.5
2018-Feb-15 14:00N 39°43' W 075°29'1 1.2
2018-Feb-15 13:30N 39°44' W 075°29'0 0.4
2018-Feb-15 13:00N 39°44' W 075°29'0 0.4
2018-Feb-15 12:30N 39°44' W 075°29'0 0.1
2018-Feb-15 12:00N 39°44' W 075°29'0 0.0
2018-Feb-15 11:30N 39°44' W 075°29'0 0.0
2018-Feb-15 11:00N 39°44' W 075°29'0 0.0
2018-Feb-15 10:30N 39°44' W 075°29'0 0.0
2018-Feb-15 10:00N 39°44' W 075°29'0 0.0
2018-Feb-15 09:30N 39°44' W 075°29'0 0.0
2018-Feb-15 09:00N 39°44' W 075°29'0 0.0
2018-Feb-15 08:30N 39°44' W 075°29'0 0.0
2018-Feb-15 08:00N 39°44' W 075°29'0 0.0
2018-Feb-15 07:30N 39°44' W 075°29'0 0.0
2018-Feb-15 07:00N 39°44' W 075°29'0 0.0
2018-Feb-15 06:30N 39°44' W 075°29'0 0.1
2018-Feb-15 06:00N 39°44' W 075°29'0 0.0
2018-Feb-15 05:30N 39°44' W 075°29'0 0.0
2018-Feb-15 05:00N 39°44' W 075°29'0 0.0
2018-Feb-15 04:30N 39°44' W 075°29'0 0.2
2018-Feb-15 04:00N 39°44' W 075°29'3 6.9
2018-Feb-15 03:30N 39°40' W 075°31'4 8.1
2018-Feb-15 03:00N 39°37' W 075°35'4 8.3
2018-Feb-15 02:30N 39°33' W 075°32'4 7.7
2018-Feb-15 02:00N 39°30' W 075°34'4 7.2
2018-Feb-15 01:30N 39°26' W 075°33'4 7.7
2018-Feb-15 01:00N 39°23' W 075°29'4 7.1
2018-Feb-15 00:30N 39°21' W 075°26'3 7.0
2018-Feb-15 00:00N 39°18' W 075°23'3 6.3
2018-Feb-14 23:30N 39°16' W 075°21'3 5.9
2018-Feb-14 23:00N 39°14' W 075°18'3 6.3
2018-Feb-14 22:30N 39°11' W 075°16'24 3.4
2018-Feb-14 15:22N 38°48' W 075°06'0 0.5
2018-Feb-14 14:59N 38°48' W 075°06'5 0.9
2018-Feb-14 09:57N 38°52' W 075°08'15 2.6
2018-Feb-14 04:15N 39°06' W 075°13'  
Track history (hours):
 
Tides and Currents Weather Stations Pressure Air Temp Water Temp Dewpoint Dewpoint Depression Visibility Wind Speed Wind Dir Waves Ship Positions

North Star State

Owner: Great Lakes Dredge & Dock Company, LLC., Oak Brook, IL. More information available from US FCC via Universal Licensing System and Coast Guard Vessel Documentation Center.

Last reported at 2018-Feb-24 04:00 UTC. Time now 2018-Feb-24 04:04 UTC.
Position N 36°50' W 076°17'.

MMSI: 367186210.

Date/timePositionNaut miles runAvg speedWind from/ knotsBaromVisibWave heightAir tempDewpointWater temp
2018-Feb-24 04:00N 36°50' W 076°17'0 0.0
2018-Feb-24 03:30N 36°50' W 076°17'0 0.0
2018-Feb-24 03:00N 36°50' W 076°17'0 0.0
2018-Feb-24 02:30N 36°50' W 076°17'0 0.0
2018-Feb-24 02:00N 36°50' W 076°17'0 0.0
2018-Feb-24 01:30N 36°50' W 076°17'0 0.0
2018-Feb-24 01:00N 36°50' W 076°17'0 0.0
2018-Feb-24 00:30N 36°50' W 076°17'0 0.0
2018-Feb-24 00:00N 36°50' W 076°17'0 0.0
2018-Feb-23 23:30N 36°50' W 076°17'0 0.0
2018-Feb-23 23:00N 36°50' W 076°17'0 0.0
2018-Feb-23 22:30N 36°50' W 076°17'0 0.0
2018-Feb-23 22:00N 36°50' W 076°17'0 0.0
2018-Feb-23 21:30N 36°50' W 076°17'0 0.0
2018-Feb-23 21:00N 36°50' W 076°17'0 0.0
2018-Feb-23 20:30N 36°50' W 076°17'0 0.0
2018-Feb-23 20:00N 36°50' W 076°17'0 0.0
2018-Feb-23 19:30N 36°50' W 076°17'0 0.0
2018-Feb-23 19:00N 36°50' W 076°17'0 0.0
2018-Feb-23 18:30N 36°50' W 076°17'0 0.0
2018-Feb-23 18:00N 36°50' W 076°17'0 0.0
2018-Feb-23 17:30N 36°50' W 076°17'0 0.0
2018-Feb-23 16:59N 36°50' W 076°17'0 0.3
2018-Feb-23 16:30N 36°50' W 076°18'1 2.5
2018-Feb-23 16:00N 36°50' W 076°16'0 0.3
2018-Feb-23 15:30N 36°50' W 076°16'0 0.3
2018-Feb-23 14:57N 36°50' W 076°16'0 0.1
2018-Feb-23 14:30N 36°50' W 076°16'1 2.7
2018-Feb-23 14:00N 36°50' W 076°18'3 5.5
2018-Feb-23 13:30N 36°47' W 076°18'1 1.3
2018-Feb-23 13:00N 36°47' W 076°18'0 0.0
2018-Feb-23 12:30N 36°47' W 076°18'0 0.1
2018-Feb-23 12:00N 36°47' W 076°18'1 2.7
2018-Feb-23 11:30N 36°48' W 076°17'2 4.5
2018-Feb-23 11:01N 36°50' W 076°18'0 0.3
2018-Feb-23 10:28N 36°50' W 076°17'0 0.0
2018-Feb-23 09:59N 36°50' W 076°17'0 0.0
2018-Feb-23 09:29N 36°50' W 076°17'0 0.0
2018-Feb-23 08:54N 36°50' W 076°17'0 0.0
2018-Feb-23 08:30N 36°50' W 076°17'0 0.0
2018-Feb-23 07:37N 36°50' W 076°17'0 0.0
2018-Feb-23 05:58N 36°50' W 076°17'0 0.0
2018-Feb-23 05:23N 36°50' W 076°17'0 0.0
2018-Feb-23 04:57N 36°50' W 076°17'0 0.0
2018-Feb-23 04:26N 36°50' W 076°17'0 0.0
2018-Feb-23 04:00N 36°50' W 076°17'0 0.0
2018-Feb-23 03:30N 36°50' W 076°17'0 0.0
2018-Feb-23 03:00N 36°50' W 076°17'0 0.0
2018-Feb-23 02:31N 36°50' W 076°17'0 0.0
2018-Feb-23 02:01N 36°50' W 076°17'0 0.0
2018-Feb-23 01:30N 36°50' W 076°17'0 0.0
2018-Feb-23 01:01N 36°50' W 076°17'0 0.0
2018-Feb-23 00:31N 36°50' W 076°17'0 0.0
2018-Feb-23 00:00N 36°50' W 076°17'0 0.0
2018-Feb-22 23:31N 36°50' W 076°17'0 0.0
2018-Feb-22 23:00N 36°50' W 076°17'0 0.0
2018-Feb-22 22:31N 36°50' W 076°17'0 0.0
2018-Feb-22 22:00N 36°50' W 076°17'0 0.0
2018-Feb-22 21:31N 36°50' W 076°17'0 0.0
2018-Feb-22 21:01N 36°50' W 076°17'0 0.0
2018-Feb-22 20:31N 36°50' W 076°17'0 0.0
2018-Feb-22 20:01N 36°50' W 076°17'0 0.0
2018-Feb-22 19:31N 36°50' W 076°17'0 0.0
2018-Feb-22 19:01N 36°50' W 076°17'0 0.0
2018-Feb-22 18:30N 36°50' W 076°17'2 3.7
2018-Feb-22 18:00N 36°48' W 076°17'0 0.9
2018-Feb-22 17:26N 36°48' W 076°17'0 1.0
2018-Feb-22 17:00N 36°48' W 076°17'3 5.2
2018-Feb-22 16:30N 36°51' W 076°18'2 4.4
2018-Feb-22 16:00N 36°51' W 076°21'1 2.2
2018-Feb-22 15:30N 36°52' W 076°20'1 1.9
2018-Feb-22 14:58N 36°53' W 076°21'0 0.1
2018-Feb-22 14:28N 36°53' W 076°21'0 0.5
2018-Feb-22 13:58N 36°53' W 076°21'3 6.4
2018-Feb-22 13:30N 36°51' W 076°18'1 1.5
2018-Feb-22 13:00N 36°50' W 076°17'0 0.0
2018-Feb-22 12:30N 36°50' W 076°17'0 0.0
2018-Feb-22 12:00N 36°50' W 076°17'0 0.0
2018-Feb-22 11:30N 36°50' W 076°17'0 0.0
2018-Feb-22 11:00N 36°50' W 076°17'0 0.0
2018-Feb-22 10:30N 36°50' W 076°17'0 0.0
2018-Feb-22 10:00N 36°50' W 076°17'0 0.0
2018-Feb-22 09:30N 36°50' W 076°17'0 0.0
2018-Feb-22 09:00N 36°50' W 076°17'0 0.0
2018-Feb-22 08:30N 36°50' W 076°17'0 0.0
2018-Feb-22 08:00N 36°50' W 076°17'0 0.0
2018-Feb-22 07:30N 36°50' W 076°17'0 0.0
2018-Feb-22 07:00N 36°50' W 076°17'0 0.0
2018-Feb-22 06:28N 36°50' W 076°17'0 0.0
2018-Feb-22 05:51N 36°50' W 076°17'0 0.0
2018-Feb-22 05:29N 36°50' W 076°17'0 0.0
2018-Feb-22 04:59N 36°50' W 076°17'0 0.0
2018-Feb-22 04:30N 36°50' W 076°17'0 0.0
2018-Feb-22 04:00N 36°50' W 076°17'0 0.0
2018-Feb-22 03:30N 36°50' W 076°17'0 0.0
2018-Feb-22 03:00N 36°50' W 076°17'0 0.0
2018-Feb-22 02:30N 36°50' W 076°17'0 0.0
2018-Feb-22 02:00N 36°50' W 076°17'0 0.0
2018-Feb-22 01:30N 36°50' W 076°17'0 0.0
2018-Feb-22 01:00N 36°50' W 076°17'0 0.0
2018-Feb-22 00:30N 36°50' W 076°17'0 0.0
2018-Feb-22 00:00N 36°50' W 076°17'0 0.0
2018-Feb-21 23:30N 36°50' W 076°17'0 0.0
2018-Feb-21 23:00N 36°50' W 076°17'0 0.0
2018-Feb-21 22:30N 36°50' W 076°17'0 0.0
2018-Feb-21 22:00N 36°50' W 076°17'0 0.5
2018-Feb-21 21:30N 36°50' W 076°18'1 1.1
2018-Feb-21 21:00N 36°50' W 076°17'0 0.4
2018-Feb-21 20:30N 36°50' W 076°18'0 0.1
2018-Feb-21 20:00N 36°50' W 076°18'0 0.1
2018-Feb-21 19:30N 36°50' W 076°18'0 0.4
2018-Feb-21 19:00N 36°50' W 076°18'0 0.4
2018-Feb-21 18:30N 36°50' W 076°18'0 0.5
2018-Feb-21 18:00N 36°50' W 076°17'0 0.0
2018-Feb-21 14:52N 36°50' W 076°17'0 0.9
2018-Feb-21 14:30N 36°51' W 076°17'0 0.6
2018-Feb-21 14:00N 36°50' W 076°17'0 0.0
2018-Feb-21 13:30N 36°50' W 076°17'0 0.0
2018-Feb-21 12:59N 36°50' W 076°17'0 0.0
2018-Feb-21 12:29N 36°50' W 076°17'0 0.0
2018-Feb-21 12:00N 36°50' W 076°17'0 0.0
2018-Feb-21 11:30N 36°50' W 076°17'0 0.0
2018-Feb-21 11:00N 36°50' W 076°17'0 0.0
2018-Feb-21 10:30N 36°50' W 076°17'0 0.0
2018-Feb-21 10:00N 36°50' W 076°17'0 0.0
2018-Feb-21 09:30N 36°50' W 076°17'0 0.0
2018-Feb-21 09:00N 36°50' W 076°17'0 0.0
2018-Feb-21 08:30N 36°50' W 076°17'0 0.0
2018-Feb-21 08:00N 36°50' W 076°17'0 0.0
2018-Feb-21 07:30N 36°50' W 076°17'0 0.0
2018-Feb-21 07:00N 36°50' W 076°17'0 0.0
2018-Feb-21 06:30N 36°50' W 076°17'0 0.0
2018-Feb-21 06:00N 36°50' W 076°17'0 0.0
2018-Feb-21 05:30N 36°50' W 076°17'0 0.0
2018-Feb-21 05:00N 36°50' W 076°17'0 0.0
2018-Feb-21 04:30N 36°50' W 076°17'0 0.0
2018-Feb-21 04:00N 36°50' W 076°17'0 0.0
2018-Feb-21 03:30N 36°50' W 076°17'0 0.0
2018-Feb-21 03:00N 36°50' W 076°17'0 0.0
2018-Feb-21 02:29N 36°50' W 076°17'0 0.0
2018-Feb-21 02:00N 36°50' W 076°17'0 0.0
2018-Feb-21 01:02N 36°50' W 076°17'0 0.0
2018-Feb-21 00:59N 36°50' W 076°17'0 0.0
2018-Feb-21 00:30N 36°50' W 076°17'0 0.0
2018-Feb-21 00:00N 36°50' W 076°17'0 0.0
2018-Feb-20 23:27N 36°50' W 076°17'0 0.0
2018-Feb-20 22:59N 36°50' W 076°17'0 0.0
2018-Feb-20 22:30N 36°50' W 076°17'0 0.0
2018-Feb-20 22:00N 36°50' W 076°17'0 0.0
2018-Feb-20 21:29N 36°50' W 076°17'0 0.0
2018-Feb-20 21:00N 36°50' W 076°17'0 0.0
2018-Feb-20 20:30N 36°50' W 076°17'0 0.0
2018-Feb-20 20:00N 36°50' W 076°17'0 0.8
2018-Feb-20 19:30N 36°50' W 076°18'0 0.0
2018-Feb-20 18:32N 36°50' W 076°18'0 0.0
2018-Feb-20 18:31N 36°50' W 076°18'0 0.0
2018-Feb-19 21:10N 36°50' W 076°17'0 0.0
2018-Feb-19 21:00N 36°50' W 076°17'3 5.1
2018-Feb-19 20:29N 36°52' W 076°20'4 6.8
2018-Feb-19 19:58N 36°56' W 076°20'3 5.8
2018-Feb-19 19:23N 36°59' W 076°19'3 6.1
2018-Feb-19 18:57N 37°00' W 076°16'3 6.6
2018-Feb-19 18:29N 37°03' W 076°14'4 6.9
2018-Feb-19 17:58N 37°06' W 076°13'4 6.9
2018-Feb-19 17:27N 37°10' W 076°12'97 7.5
2018-Feb-19 04:32N 38°46' W 076°28'1 8.2
2018-Feb-19 04:28N 38°46' W 076°28'4 8.1
2018-Feb-19 04:00N 38°50' W 076°26'4 8.1
2018-Feb-19 03:30N 38°54' W 076°25'4 8.1
2018-Feb-19 03:00N 38°58' W 076°24'4 7.9
2018-Feb-19 02:30N 39°01' W 076°22'23 7.4
2018-Feb-18 23:20N 39°22' W 076°08'3 8.0
2018-Feb-18 22:59N 39°23' W 076°05'4 8.1
2018-Feb-18 22:30N 39°26' W 076°01'4 7.9
2018-Feb-18 22:00N 39°28' W 075°58'4 8.0
2018-Feb-18 21:30N 39°31' W 075°53'4 7.7
2018-Feb-18 21:00N 39°32' W 075°49'4 8.0
2018-Feb-18 20:30N 39°33' W 075°43'4 8.0
2018-Feb-18 20:00N 39°33' W 075°38'4 7.8
2018-Feb-18 19:30N 39°34' W 075°33'2 3.3
2018-Feb-18 19:00N 39°34' W 075°35'0 0.0
2018-Feb-18 18:30N 39°34' W 075°35'0 0.0
2018-Feb-18 18:00N 39°34' W 075°35'  
2018-Feb-15 17:52N 39°34' W 075°35'0 0.0
2018-Feb-15 17:30N 39°34' W 075°35'2 3.9
2018-Feb-15 17:00N 39°36' W 075°36'3 6.2
2018-Feb-15 16:30N 39°39' W 075°34'3 6.1
2018-Feb-15 16:00N 39°41' W 075°31'3 5.4
2018-Feb-15 15:30N 39°44' W 075°29'0 0.8
2018-Feb-15 15:00N 39°44' W 075°29'0 0.1
2018-Feb-15 14:29N 39°44' W 075°29'1 1.5
2018-Feb-15 14:00N 39°43' W 075°29'1 1.2
2018-Feb-15 13:30N 39°44' W 075°29'0 0.4
2018-Feb-15 13:00N 39°44' W 075°29'0 0.4
2018-Feb-15 12:30N 39°44' W 075°29'0 0.1
2018-Feb-15 12:00N 39°44' W 075°29'0 0.0
2018-Feb-15 11:30N 39°44' W 075°29'0 0.0
2018-Feb-15 11:00N 39°44' W 075°29'0 0.0
2018-Feb-15 10:30N 39°44' W 075°29'0 0.0
2018-Feb-15 10:00N 39°44' W 075°29'0 0.0
2018-Feb-15 09:30N 39°44' W 075°29'0 0.0
2018-Feb-15 09:00N 39°44' W 075°29'0 0.0
2018-Feb-15 08:30N 39°44' W 075°29'0 0.0
2018-Feb-15 08:00N 39°44' W 075°29'0 0.0
2018-Feb-15 07:30N 39°44' W 075°29'0 0.0
2018-Feb-15 07:00N 39°44' W 075°29'0 0.0
2018-Feb-15 06:30N 39°44' W 075°29'0 0.1
2018-Feb-15 06:00N 39°44' W 075°29'0 0.0
2018-Feb-15 05:30N 39°44' W 075°29'0 0.0
2018-Feb-15 05:00N 39°44' W 075°29'0 0.0
2018-Feb-15 04:30N 39°44' W 075°29'0 0.2
2018-Feb-15 04:00N 39°44' W 075°29'3 6.9
2018-Feb-15 03:30N 39°40' W 075°31'4 8.1
2018-Feb-15 03:00N 39°37' W 075°35'4 8.3
2018-Feb-15 02:30N 39°33' W 075°32'4 7.7
2018-Feb-15 02:00N 39°30' W 075°34'4 7.2
2018-Feb-15 01:30N 39°26' W 075°33'4 7.7
2018-Feb-15 01:00N 39°23' W 075°29'4 7.1
2018-Feb-15 00:30N 39°21' W 075°26'3 7.0
2018-Feb-15 00:00N 39°18' W 075°23'3 6.3
2018-Feb-14 23:30N 39°16' W 075°21'3 5.9
2018-Feb-14 23:00N 39°14' W 075°18'3 6.3
2018-Feb-14 22:30N 39°11' W 075°16'24 3.4
2018-Feb-14 15:22N 38°48' W 075°06'0 0.5
2018-Feb-14 14:59N 38°48' W 075°06'5 0.9
2018-Feb-14 09:57N 38°52' W 075°08'15 2.6
2018-Feb-14 04:15N 39°06' W 075°13'  

Dump ship's entire track history